createdAt,value
2023-03-31T00:01:32.030Z,83.51
2023-03-31T00:03:58.817Z,82.50
2023-03-31T00:06:25.644Z,82.96
2023-03-31T00:08:56.177Z,82.73
2023-03-31T00:13:58.817Z,82.74
2023-03-31T00:16:25.343Z,83.15
2023-03-31T00:18:51.973Z,82.82
2023-03-31T00:21:19.998Z,82.96
2023-03-31T00:23:46.463Z,82.47
2023-03-31T00:26:14.180Z,83.14
2023-03-31T00:28:40.565Z,83.39
2023-03-31T00:31:07.043Z,83.27
2023-03-31T00:33:33.477Z,83.92
2023-03-31T00:36:00.014Z,83.59
2023-03-31T00:38:26.462Z,82.61
2023-03-31T00:40:53.940Z,83.30
2023-03-31T00:43:34.583Z,82.89
2023-03-31T00:46:07.298Z,82.74
2023-03-31T00:48:36.945Z,82.66
2023-03-31T00:51:06.678Z,82.90
2023-03-31T00:53:36.379Z,82.35
2023-03-31T00:56:09.323Z,82.73
2023-03-31T00:58:38.462Z,82.11
2023-03-31T01:01:05.083Z,82.22
2023-03-31T01:03:32.411Z,82.25
2023-03-31T01:06:02.680Z,82.42
2023-03-31T01:08:29.489Z,82.35
2023-03-31T01:11:02.243Z,83.20
2023-03-31T01:13:34.556Z,82.58
2023-03-31T01:16:03.248Z,82.34
2023-03-31T01:18:32.571Z,83.15
2023-03-31T01:21:24.277Z,82.80
2023-03-31T01:24:28.022Z,83.34
2023-03-31T01:27:12.961Z,82.86
2023-03-31T01:30:21.068Z,82.94
2023-03-31T01:33:14.583Z,83.98
2023-03-31T01:36:02.476Z,83.29
2023-03-31T01:38:50.892Z,83.90
2023-03-31T01:41:35.247Z,84.24
2023-03-31T01:44:10.126Z,83.71
2023-03-31T01:46:41.782Z,84.12
2023-03-31T01:49:16.384Z,83.96
2023-03-31T01:51:49.785Z,84.87
2023-03-31T01:54:23.383Z,84.66
2023-03-31T01:56:57.004Z,84.67
2023-03-31T01:59:28.110Z,84.47
2023-03-31T02:01:59.470Z,84.13
2023-03-31T02:04:31.021Z,84.57
2023-03-31T02:07:03.467Z,85.06
2023-03-31T02:09:34.061Z,84.81
2023-03-31T02:12:05.711Z,85.02
2023-03-31T02:14:35.307Z,84.99
2023-03-31T02:17:02.306Z,84.93
2023-03-31T02:19:33.527Z,85.03
2023-03-31T02:22:02.637Z,84.47
2023-03-31T02:24:30.551Z,84.88
2023-03-31T02:27:05.056Z,84.27
2023-03-31T02:29:32.444Z,84.84
2023-03-31T02:32:05.894Z,84.47
2023-03-31T02:34:34.803Z,84.84
2023-03-31T02:37:01.835Z,85.25
2023-03-31T02:39:34.074Z,84.29
2023-03-31T02:42:03.037Z,83.98
2023-03-31T02:44:29.453Z,84.40
2023-03-31T02:46:55.926Z,84.14
2023-03-31T02:49:22.436Z,84.69
2023-03-31T02:52:15.762Z,84.29
2023-03-31T02:55:10.187Z,84.47
2023-03-31T02:58:00.183Z,84.24
2023-03-31T03:00:40.579Z,84.06
2023-03-31T03:03:20.419Z,84.75
2023-03-31T03:05:53.502Z,84.63
2023-03-31T03:09:07.633Z,83.99
2023-03-31T03:11:45.118Z,83.78
2023-03-31T03:14:21.140Z,84.64
2023-03-31T03:16:53.783Z,83.94
2023-03-31T03:19:22.446Z,83.83
2023-03-31T03:21:49.464Z,83.90
2023-03-31T03:24:16.822Z,83.06
2023-03-31T03:26:43.476Z,83.34
2023-03-31T03:29:10.040Z,83.21
2023-03-31T03:31:37.769Z,83.92
2023-03-31T03:34:04.355Z,83.73
2023-03-31T03:36:30.792Z,84.32
2023-03-31T03:38:57.297Z,84.24
2023-03-31T03:41:24.069Z,83.88
2023-03-31T03:43:50.462Z,84.63
2023-03-31T03:46:16.889Z,83.95
2023-03-31T03:48:44.708Z,84.34
2023-03-31T03:51:11.135Z,84.15
2023-03-31T03:53:37.607Z,83.61
2023-03-31T03:56:04.551Z,84.26
2023-03-31T03:58:31.170Z,83.76
2023-03-31T04:00:57.648Z,83.70
2023-03-31T04:03:24.179Z,84.08
2023-03-31T04:05:52.000Z,83.66
2023-03-31T04:08:19.043Z,83.25
2023-03-31T04:10:46.772Z,82.21
2023-03-31T04:13:13.137Z,82.49
2023-03-31T04:15:39.574Z,82.69
2023-03-31T04:18:08.087Z,82.54
2023-03-31T04:20:34.596Z,81.80
2023-03-31T04:23:02.303Z,82.33
2023-03-31T04:25:28.743Z,82.46
2023-03-31T04:27:55.297Z,82.25
2023-03-31T04:30:23.140Z,82.22
2023-03-31T04:32:50.758Z,82.94
2023-03-31T04:35:17.509Z,82.22
2023-03-31T04:37:43.958Z,82.25
2023-03-31T04:40:12.082Z,82.27
2023-03-31T04:42:38.444Z,82.01
2023-03-31T04:45:05.504Z,81.35
2023-03-31T04:47:31.919Z,81.75
2023-03-31T04:49:58.378Z,81.78
2023-03-31T04:52:24.878Z,81.18
2023-03-31T04:54:51.400Z,81.03
2023-03-31T04:57:19.413Z,81.47
2023-03-31T04:59:45.846Z,81.53
2023-03-31T05:02:12.549Z,81.18
2023-03-31T05:04:39.023Z,81.85
2023-03-31T05:07:05.543Z,82.14
2023-03-31T05:09:33.496Z,82.01
2023-03-31T05:12:03.052Z,82.34
2023-03-31T05:14:30.803Z,82.00
2023-03-31T05:16:57.314Z,82.60
2023-03-31T05:19:23.879Z,82.51
2023-03-31T05:21:50.366Z,82.64
2023-03-31T05:24:16.839Z,82.71
2023-03-31T05:26:43.280Z,83.56
2023-03-31T05:29:09.682Z,83.62
2023-03-31T05:31:37.435Z,83.01
2023-03-31T05:34:03.841Z,83.68
2023-03-31T05:36:30.251Z,83.99
2023-03-31T05:38:56.706Z,83.54
2023-03-31T05:41:23.193Z,83.94
2023-03-31T05:43:49.626Z,83.74
2023-03-31T05:46:16.121Z,83.22
2023-03-31T05:48:43.914Z,83.01
2023-03-31T05:51:10.647Z,82.29
2023-03-31T05:53:37.079Z,82.10
2023-03-31T05:56:06.358Z,81.32
2023-03-31T05:58:34.140Z,80.45
2023-03-31T06:01:02.504Z,81.10
2023-03-31T06:03:29.060Z,80.96
2023-03-31T06:05:56.875Z,81.61
2023-03-31T06:08:23.311Z,82.39
2023-03-31T06:10:49.676Z,82.41
2023-03-31T06:13:16.402Z,82.72
2023-03-31T06:15:42.950Z,82.88
2023-03-31T06:18:09.484Z,82.99
2023-03-31T06:20:36.028Z,83.10
2023-03-31T06:23:03.874Z,82.77
2023-03-31T06:25:37.143Z,82.69
2023-03-31T06:28:10.349Z,83.28
2023-03-31T06:30:36.794Z,83.16
2023-03-31T06:33:03.438Z,83.82
2023-03-31T06:35:30.041Z,83.98
2023-03-31T06:37:56.413Z,83.52
2023-03-31T06:40:25.204Z,83.16
2023-03-31T06:42:51.748Z,84.13
2023-03-31T06:45:18.337Z,83.36
2023-03-31T06:47:44.876Z,84.43
2023-03-31T06:50:11.320Z,83.31
2023-03-31T06:52:40.725Z,83.16
2023-03-31T06:55:09.466Z,84.13
2023-03-31T06:57:39.765Z,82.72
2023-03-31T07:00:09.967Z,83.84
2023-03-31T07:02:36.332Z,82.68
2023-03-31T07:05:03.216Z,82.37
2023-03-31T07:07:31.395Z,82.23
2023-03-31T07:09:58.099Z,81.15
2023-03-31T07:12:24.611Z,82.34
2023-03-31T07:14:52.341Z,81.21
2023-03-31T07:17:18.783Z,81.89
2023-03-31T07:19:45.220Z,82.44
2023-03-31T07:22:11.609Z,81.79
2023-03-31T07:24:38.042Z,80.68
2023-03-31T07:27:04.535Z,81.08
2023-03-31T07:29:30.958Z,81.67
2023-03-31T07:31:58.746Z,81.47
2023-03-31T07:34:25.287Z,80.33
2023-03-31T07:36:55.505Z,80.43
2023-03-31T07:39:22.187Z,80.49
2023-03-31T07:41:48.655Z,79.04
2023-03-31T07:44:15.065Z,78.84
2023-03-31T07:46:41.736Z,79.82
2023-03-31T07:49:09.680Z,78.27
2023-03-31T07:51:36.176Z,78.25
2023-03-31T07:54:02.576Z,78.96
2023-03-31T07:56:28.976Z,77.93
2023-03-31T07:58:57.523Z,78.35
2023-03-31T08:01:25.435Z,77.86
2023-03-31T08:03:52.320Z,75.71
2023-03-31T08:06:22.388Z,76.31
2023-03-31T08:08:50.187Z,76.49
2023-03-31T08:11:16.873Z,76.15
2023-03-31T08:13:43.308Z,75.71
2023-03-31T08:16:10.304Z,76.44
2023-03-31T08:18:37.019Z,76.11
2023-03-31T08:21:03.799Z,75.09
2023-03-31T08:23:31.699Z,75.62
2023-03-31T08:26:08.397Z,73.94
2023-03-31T08:28:35.151Z,74.40
2023-03-31T08:31:03.834Z,73.81
2023-03-31T08:33:32.346Z,75.53
2023-03-31T08:36:02.386Z,76.62
2023-03-31T08:38:28.883Z,76.03
2023-03-31T08:41:01.315Z,77.28
2023-03-31T08:43:33.116Z,78.79
2023-03-31T08:46:01.691Z,80.17
2023-03-31T08:48:30.564Z,80.21
2023-03-31T08:51:02.960Z,79.96
2023-03-31T08:53:32.856Z,81.83
2023-03-31T08:56:00.649Z,82.98
2023-03-31T08:58:39.712Z,81.93
2023-03-31T09:01:16.542Z,83.33
2023-03-31T09:03:51.105Z,84.13
2023-03-31T09:06:24.777Z,85.29
2023-03-31T09:08:54.827Z,85.25
2023-03-31T09:11:32.932Z,83.78
2023-03-31T09:14:24.918Z,83.97
2023-03-31T09:16:58.456Z,83.40
2023-03-31T09:19:35.351Z,83.04
2023-03-31T09:22:04.499Z,85.15
2023-03-31T09:24:36.567Z,83.55
2023-03-31T09:27:08.364Z,83.38
2023-03-31T09:29:43.103Z,83.96
2023-03-31T09:32:15.789Z,83.30
2023-03-31T09:34:44.425Z,83.27
2023-03-31T09:37:11.618Z,83.79
2023-03-31T09:39:38.200Z,84.05
2023-03-31T09:42:12.272Z,83.64
2023-03-31T09:44:40.084Z,83.53
2023-03-31T09:47:12.102Z,82.25
2023-03-31T09:49:39.460Z,83.08
2023-03-31T09:54:44.497Z,83.90
2023-03-31T09:57:24.453Z,84.67
2023-03-31T09:59:51.954Z,83.39
2023-03-31T10:02:36.076Z,83.18
2023-03-31T10:05:04.192Z,83.38
2023-03-31T10:07:30.999Z,84.60
2023-03-31T10:09:57.578Z,85.22
2023-03-31T10:12:28.255Z,86.46
2023-03-31T10:15:03.532Z,86.21
2023-03-31T10:17:32.546Z,86.27
2023-03-31T10:20:19.115Z,85.83
2023-03-31T10:22:45.969Z,86.48
2023-03-31T10:25:17.237Z,87.44
2023-03-31T10:27:48.133Z,87.28
2023-03-31T10:30:20.909Z,88.75
2023-03-31T10:32:49.956Z,88.59
2023-03-31T10:35:26.280Z,88.39
2023-03-31T10:37:56.716Z,89.56
2023-03-31T10:40:25.876Z,89.87
2023-03-31T10:43:02.206Z,90.90
2023-03-31T10:45:37.259Z,91.03
2023-03-31T10:48:06.993Z,90.87
2023-03-31T10:50:37.803Z,91.50
2023-03-31T10:53:06.152Z,91.99
2023-03-31T10:55:42.258Z,93.29
2023-03-31T10:58:31.552Z,92.39
2023-03-31T11:01:11.253Z,93.42
2023-03-31T11:03:55.213Z,93.07
2023-03-31T11:06:28.128Z,92.82
2023-03-31T11:09:09.698Z,93.57
2023-03-31T11:11:56.407Z,94.43
2023-03-31T11:14:33.656Z,94.32
2023-03-31T11:17:05.380Z,93.39
2023-03-31T11:19:42.579Z,94.57
2023-03-31T11:22:16.925Z,94.05
2023-03-31T11:25:05.957Z,94.65
2023-03-31T11:27:48.598Z,94.58
2023-03-31T11:30:21.910Z,95.50
2023-03-31T11:33:00.990Z,94.28
2023-03-31T11:35:42.359Z,94.88
2023-03-31T11:38:24.058Z,94.71
2023-03-31T11:40:57.547Z,94.99
2023-03-31T11:43:30.238Z,94.87
2023-03-31T11:46:01.967Z,95.02
2023-03-31T11:48:39.006Z,95.35
2023-03-31T11:51:16.988Z,94.80
2023-03-31T11:53:45.132Z,94.30
2023-03-31T11:56:12.900Z,94.68
2023-03-31T11:58:45.359Z,94.05
2023-03-31T12:01:23.220Z,95.26
2023-03-31T12:03:57.149Z,94.84
2023-03-31T12:06:28.154Z,94.30
2023-03-31T12:09:09.536Z,95.28
2023-03-31T12:11:43.083Z,95.19
2023-03-31T12:14:21.812Z,95.23
2023-03-31T12:16:52.805Z,94.92
2023-03-31T12:19:24.425Z,93.76
2023-03-31T12:21:56.849Z,94.16
2023-03-31T12:24:23.246Z,94.09
2023-03-31T12:26:58.502Z,92.73
2023-03-31T12:29:30.542Z,92.77
2023-03-31T12:32:01.085Z,92.86
2023-03-31T12:34:30.062Z,93.35
2023-03-31T12:37:13.315Z,92.83
2023-03-31T12:39:52.624Z,92.95
2023-03-31T12:42:39.714Z,93.51
2023-03-31T12:45:17.966Z,93.63
2023-03-31T12:48:08.091Z,93.48
2023-03-31T12:50:51.409Z,91.61
2023-03-31T12:53:28.606Z,92.36
2023-03-31T12:55:57.116Z,91.66
2023-03-31T12:58:45.780Z,90.88
2023-03-31T13:01:15.210Z,88.62
2023-03-31T13:03:49.420Z,87.78
2023-03-31T13:06:53.952Z,87.33
2023-03-31T13:09:40.387Z,89.42
2023-03-31T13:12:08.066Z,87.61
2023-03-31T13:14:38.041Z,87.38
2023-03-31T13:17:15.681Z,86.39
2023-03-31T13:19:45.971Z,85.61
2023-03-31T13:22:32.755Z,84.95
2023-03-31T13:25:37.211Z,82.90
2023-03-31T13:28:26.357Z,84.81
2023-03-31T13:30:55.668Z,83.41
2023-03-31T13:33:30.894Z,81.58
2023-03-31T13:36:25.273Z,84.08
2023-03-31T13:39:05.933Z,82.70
2023-03-31T13:41:44.447Z,83.03
2023-03-31T13:44:48.117Z,79.86
2023-03-31T13:47:34.064Z,81.66
2023-03-31T13:50:17.281Z,79.80
2023-03-31T13:52:53.186Z,78.52
2023-03-31T13:55:34.702Z,80.61
2023-03-31T13:58:33.602Z,79.12
2023-03-31T14:01:40.008Z,77.68
2023-03-31T14:04:27.367Z,78.38
2023-03-31T14:06:59.074Z,78.26
2023-03-31T14:09:32.323Z,80.31
2023-03-31T14:11:59.391Z,79.55
2023-03-31T14:14:25.839Z,82.64
2023-03-31T14:16:56.452Z,81.27
2023-03-31T14:19:44.701Z,80.29
2023-03-31T14:22:20.007Z,79.34
2023-03-31T14:24:54.059Z,82.78
2023-03-31T14:27:35.655Z,81.13
2023-03-31T14:30:10.672Z,84.17
2023-03-31T14:32:44.373Z,82.56
2023-03-31T14:35:28.326Z,84.93
2023-03-31T14:38:09.177Z,87.77
2023-03-31T14:40:47.254Z,86.88
2023-03-31T14:43:20.019Z,89.82
2023-03-31T14:45:46.436Z,90.34
2023-03-31T14:48:14.596Z,91.25
2023-03-31T14:50:44.267Z,92.59
2023-03-31T14:53:14.651Z,92.43
2023-03-31T14:55:57.464Z,93.08
2023-03-31T14:58:29.707Z,93.63
2023-03-31T15:00:56.336Z,92.90
2023-03-31T15:03:25.364Z,92.92
2023-03-31T15:05:57.378Z,92.56
2023-03-31T15:08:24.662Z,92.35
2023-03-31T15:11:02.417Z,92.31
2023-03-31T15:13:42.529Z,90.99
2023-03-31T15:16:20.659Z,91.83
2023-03-31T15:18:47.402Z,91.36
2023-03-31T15:21:20.696Z,91.05
2023-03-31T15:23:47.393Z,90.54
2023-03-31T15:26:24.932Z,90.88
2023-03-31T15:28:59.904Z,90.76
2023-03-31T15:31:26.751Z,91.30
2023-03-31T15:33:53.966Z,90.48
2023-03-31T15:36:21.365Z,89.38
2023-03-31T15:38:56.016Z,90.24
2023-03-31T15:44:02.855Z,88.32
2023-03-31T15:46:50.138Z,88.22
2023-03-31T15:49:20.859Z,89.43
2023-03-31T15:51:48.223Z,88.45
2023-03-31T15:54:30.979Z,88.98
2023-03-31T15:56:59.674Z,89.43
2023-03-31T15:59:34.401Z,88.81
2023-03-31T16:02:13.137Z,87.72
2023-03-31T16:04:39.749Z,87.51
2023-03-31T16:07:08.734Z,87.35
2023-03-31T16:09:44.309Z,88.70
2023-03-31T16:12:15.833Z,89.77
2023-03-31T16:14:47.757Z,88.97
2023-03-31T16:17:26.023Z,88.21
2023-03-31T16:19:59.585Z,88.00
2023-03-31T16:22:35.214Z,89.43
2023-03-31T16:25:01.895Z,87.36
2023-03-31T16:27:28.573Z,85.89
2023-03-31T16:30:07.118Z,89.54
2023-03-31T16:32:35.139Z,89.10
2023-03-31T16:35:03.716Z,88.83
2023-03-31T16:37:30.377Z,86.01
2023-03-31T16:39:56.988Z,86.54
2023-03-31T16:42:23.925Z,87.09
2023-03-31T16:45:09.589Z,86.89
2023-03-31T16:47:38.148Z,86.13
2023-03-31T16:50:05.703Z,87.49
2023-03-31T16:52:32.145Z,87.12
2023-03-31T16:54:58.850Z,87.02
2023-03-31T16:57:25.398Z,88.33
2023-03-31T16:59:52.257Z,86.91
2023-03-31T17:02:18.636Z,86.72
2023-03-31T17:04:46.471Z,87.80
2023-03-31T17:07:12.854Z,87.90
2023-03-31T17:09:39.246Z,87.70
2023-03-31T17:12:05.784Z,87.68
2023-03-31T17:14:32.161Z,88.73
2023-03-31T17:16:58.606Z,89.45
2023-03-31T17:19:25.133Z,89.02
2023-03-31T17:21:53.004Z,88.98
2023-03-31T17:24:19.447Z,88.92
2023-03-31T17:26:45.915Z,89.62
2023-03-31T17:29:14.561Z,89.23
2023-03-31T17:31:41.862Z,88.61
2023-03-31T17:34:08.354Z,89.90
2023-03-31T17:36:34.901Z,88.93
2023-03-31T17:39:03.335Z,88.86
2023-03-31T17:41:29.772Z,89.32
2023-03-31T17:43:56.218Z,90.10
2023-03-31T17:46:23.297Z,90.63
2023-03-31T17:48:49.794Z,89.98
2023-03-31T17:51:18.111Z,89.45
2023-03-31T17:53:46.678Z,90.02
2023-03-31T17:56:16.526Z,87.93
2023-03-31T17:58:43.260Z,88.76
2023-03-31T18:01:10.812Z,88.93
2023-03-31T18:03:37.345Z,87.44
2023-03-31T18:06:05.115Z,88.22
2023-03-31T18:08:31.697Z,87.45
2023-03-31T18:10:58.185Z,89.06
2023-03-31T18:13:28.141Z,89.04
2023-03-31T18:15:54.741Z,89.69
2023-03-31T18:18:21.650Z,89.72
2023-03-31T18:20:48.101Z,89.09
2023-03-31T18:23:14.609Z,90.01
2023-03-31T18:25:42.204Z,90.78
2023-03-31T18:28:08.758Z,90.22
2023-03-31T18:30:36.733Z,90.25
2023-03-31T18:33:03.612Z,90.62
2023-03-31T18:35:30.217Z,91.09
2023-03-31T18:37:56.835Z,90.61
2023-03-31T18:40:23.535Z,90.43
2023-03-31T18:42:50.013Z,92.23
2023-03-31T18:45:17.466Z,92.37
2023-03-31T18:47:45.473Z,91.41
2023-03-31T18:50:12.104Z,92.00
2023-03-31T18:52:38.766Z,93.13
2023-03-31T18:55:06.247Z,93.17
2023-03-31T18:57:32.998Z,93.44
2023-03-31T19:00:02.023Z,93.20
2023-03-31T19:02:28.623Z,92.80
2023-03-31T19:04:56.534Z,92.24
2023-03-31T19:07:25.775Z,92.28
2023-03-31T19:09:52.230Z,93.09
2023-03-31T19:12:18.669Z,92.99
2023-03-31T19:14:45.140Z,93.85
2023-03-31T19:17:13.602Z,93.69
2023-03-31T19:19:40.016Z,93.58
2023-03-31T19:22:13.500Z,93.94
2023-03-31T19:24:39.999Z,93.79
2023-03-31T19:27:06.558Z,94.08
2023-03-31T19:29:34.482Z,94.10
2023-03-31T19:32:01.796Z,93.64
2023-03-31T19:34:31.445Z,93.35
2023-03-31T19:36:57.967Z,92.77
2023-03-31T19:39:33.171Z,93.08
2023-03-31T19:41:59.662Z,93.17
2023-03-31T19:44:29.194Z,91.07
2023-03-31T19:46:55.631Z,92.68
2023-03-31T19:49:24.910Z,92.79
2023-03-31T19:51:53.678Z,92.21
2023-03-31T19:54:20.904Z,92.50
2023-03-31T19:56:48.973Z,92.61
2023-03-31T19:59:15.626Z,93.03
2023-03-31T20:01:45.298Z,93.32
2023-03-31T20:04:12.029Z,92.27
2023-03-31T20:06:39.936Z,92.69
2023-03-31T20:09:06.396Z,93.43
2023-03-31T20:11:33.000Z,91.50
2023-03-31T20:14:04.103Z,92.65
2023-03-31T20:16:31.531Z,92.75
2023-03-31T20:18:59.937Z,92.91
2023-03-31T20:21:28.078Z,93.45
2023-03-31T20:23:55.102Z,92.25
2023-03-31T20:26:26.470Z,90.57
2023-03-31T20:28:55.392Z,92.04
2023-03-31T20:31:26.450Z,92.34
2023-03-31T20:33:54.036Z,93.16
2023-03-31T20:36:22.834Z,93.04
2023-03-31T20:38:50.699Z,92.71
2023-03-31T20:41:18.148Z,93.56
2023-03-31T20:43:44.694Z,91.71
2023-03-31T20:46:11.420Z,92.36
2023-03-31T20:48:40.864Z,92.84
2023-03-31T20:51:09.023Z,92.42
2023-03-31T20:53:36.503Z,92.79
2023-03-31T20:56:03.213Z,92.26
2023-03-31T20:58:41.111Z,91.74
2023-03-31T21:01:09.347Z,92.76
2023-03-31T21:03:35.960Z,91.30
2023-03-31T21:06:05.821Z,92.10
2023-03-31T21:08:32.745Z,91.93
2023-03-31T21:10:59.218Z,92.02
2023-03-31T21:13:27.058Z,92.33
2023-03-31T21:15:53.848Z,92.84
2023-03-31T21:18:20.421Z,92.83
2023-03-31T21:20:50.354Z,93.06
2023-03-31T21:23:18.319Z,92.91
2023-03-31T21:25:46.645Z,93.04
2023-03-31T21:28:13.030Z,92.31
2023-03-31T21:30:39.458Z,92.45
2023-03-31T21:33:05.897Z,93.04
2023-03-31T21:35:32.389Z,93.05
2023-03-31T21:37:59.000Z,92.86
2023-03-31T21:40:26.714Z,92.75
2023-03-31T21:42:53.127Z,92.28
2023-03-31T21:45:19.598Z,91.92
2023-03-31T21:47:46.068Z,92.71
2023-03-31T21:50:12.543Z,92.37
2023-03-31T21:52:38.940Z,92.20
2023-03-31T21:55:05.724Z,91.77
2023-03-31T21:57:33.618Z,92.41
2023-03-31T22:00:00.117Z,92.70
2023-03-31T22:02:26.634Z,92.13
2023-03-31T22:04:53.090Z,93.11
2023-03-31T22:07:19.593Z,92.92
2023-03-31T22:09:51.468Z,92.43
2023-03-31T22:12:17.874Z,92.10
2023-03-31T22:14:45.607Z,92.36
2023-03-31T22:17:12.047Z,92.67
2023-03-31T22:19:38.511Z,92.29
2023-03-31T22:22:04.918Z,91.82
2023-03-31T22:24:31.362Z,90.83
2023-03-31T22:26:57.991Z,91.75
2023-03-31T22:29:24.850Z,92.28
2023-03-31T22:31:53.084Z,90.91
2023-03-31T22:34:19.647Z,91.06
2023-03-31T22:36:46.616Z,90.85
2023-03-31T22:39:13.098Z,92.03
2023-03-31T22:41:39.583Z,92.04
2023-03-31T22:44:07.878Z,92.38
2023-03-31T22:46:34.781Z,91.96
2023-03-31T22:49:02.891Z,92.34
2023-03-31T22:51:29.825Z,93.14
2023-03-31T22:53:56.701Z,92.89
2023-03-31T22:56:24.355Z,93.09
2023-03-31T22:58:52.106Z,93.64
2023-03-31T23:01:20.590Z,92.85
2023-03-31T23:03:47.557Z,93.55
2023-03-31T23:06:16.458Z,93.42
2023-03-31T23:08:43.284Z,93.87
2023-03-31T23:11:12.241Z,93.43
2023-03-31T23:13:39.259Z,93.87
2023-03-31T23:16:07.001Z,93.69
2023-03-31T23:18:33.822Z,94.28
2023-03-31T23:21:03.030Z,94.19
2023-03-31T23:23:30.871Z,93.79
2023-03-31T23:26:00.157Z,93.54
2023-03-31T23:28:26.596Z,94.45
2023-03-31T23:30:53.102Z,94.67
2023-03-31T23:33:19.542Z,94.29
2023-03-31T23:35:45.900Z,93.81
2023-03-31T23:38:14.234Z,93.35
2023-03-31T23:40:41.980Z,93.48
2023-03-31T23:43:08.513Z,93.84
2023-03-31T23:45:34.941Z,93.36
2023-03-31T23:48:01.418Z,94.00
2023-03-31T23:50:27.873Z,94.17
2023-03-31T23:52:54.298Z,93.82
2023-03-31T23:55:20.901Z,94.41
2023-03-31T23:57:48.700Z,93.55
